createdAt,value
2023-02-17T00:01:22.636Z,101307.13
2023-02-17T00:03:51.519Z,101312.06
2023-02-17T00:06:21.160Z,101300.66
2023-02-17T00:08:48.254Z,101299.63
2023-02-17T00:11:15.118Z,101309.13
2023-02-17T00:13:42.420Z,101309.69
2023-02-17T00:16:11.289Z,101304.28
2023-02-17T00:18:37.782Z,101303.72
2023-02-17T00:21:12.733Z,101295.44
2023-02-17T00:23:39.145Z,101305.59
2023-02-17T00:26:06.989Z,101311.78
2023-02-17T00:28:34.364Z,101307.34
2023-02-17T00:31:16.114Z,101306.09
2023-02-17T00:33:42.794Z,101308.66
2023-02-17T00:36:12.858Z,101302.34
2023-02-17T00:38:39.605Z,101303.56
2023-02-17T00:41:06.077Z,101299.63
2023-02-17T00:43:32.550Z,101295.75
2023-02-17T00:45:59.064Z,101300.38
2023-02-17T00:48:25.814Z,101296.22
2023-02-17T00:50:52.298Z,101286.44
2023-02-17T00:53:18.971Z,101292.16
2023-02-17T00:55:45.516Z,101290.47
2023-02-17T00:58:12.198Z,101288.50
2023-02-17T01:00:38.711Z,101286.09
2023-02-17T01:03:05.147Z,101297.75
2023-02-17T01:05:31.880Z,101291.75
2023-02-17T01:07:58.393Z,101290.38
2023-02-17T01:10:24.851Z,101295.13
2023-02-17T01:12:51.672Z,101280.19
2023-02-17T01:15:21.296Z,101282.50
2023-02-17T01:17:49.612Z,101279.53
2023-02-17T01:20:16.253Z,101280.03
2023-02-17T01:22:42.697Z,101270.81
2023-02-17T01:25:09.143Z,101271.66
2023-02-17T01:27:35.978Z,101266.25
2023-02-17T01:30:02.581Z,101255.97
2023-02-17T01:32:29.383Z,101251.63
2023-02-17T01:34:55.980Z,101247.69
2023-02-17T01:37:22.555Z,101239.53
2023-02-17T01:39:49.401Z,101241.25
2023-02-17T01:42:17.626Z,101230.34
2023-02-17T01:45:18.356Z,101225.25
2023-02-17T01:47:56.374Z,101231.16
2023-02-17T01:50:28.219Z,101223.22
2023-02-17T01:52:58.076Z,101220.56
2023-02-17T01:55:25.953Z,101220.41
2023-02-17T01:57:57.509Z,101217.53
2023-02-17T02:00:27.801Z,101224.41
2023-02-17T02:02:54.870Z,101220.72
2023-02-17T02:05:22.039Z,101201.44
2023-02-17T02:07:50.350Z,101211.31
2023-02-17T02:10:19.619Z,101209.41
2023-02-17T02:12:46.412Z,101202.81
2023-02-17T02:15:16.236Z,101209.81
2023-02-17T02:17:52.456Z,101210.78
2023-02-17T02:20:26.044Z,101203.56
2023-02-17T02:23:07.738Z,101199.19
2023-02-17T02:25:40.240Z,101188.03
2023-02-17T02:28:28.579Z,101191.00
2023-02-17T02:31:29.212Z,101193.97
2023-02-17T02:34:07.801Z,101192.81
2023-02-17T02:36:58.564Z,101182.94
2023-02-17T02:39:32.586Z,101170.13
2023-02-17T02:42:04.865Z,101173.94
2023-02-17T02:44:31.520Z,101159.88
2023-02-17T02:47:26.107Z,101170.22
2023-02-17T02:49:53.089Z,101155.22
2023-02-17T02:52:29.671Z,101148.25
2023-02-17T02:55:06.286Z,101149.84
2023-02-17T02:58:02.265Z,101139.00
2023-02-17T03:00:53.935Z,101143.38
2023-02-17T03:04:07.300Z,101149.34
2023-02-17T03:06:44.803Z,101140.53
2023-02-17T03:09:14.716Z,101149.09
2023-02-17T03:11:41.999Z,101149.47
2023-02-17T03:14:14.934Z,101150.47
2023-02-17T03:16:42.753Z,101137.88
2023-02-17T03:19:10.628Z,101143.59
2023-02-17T03:21:44.891Z,101145.50
2023-02-17T03:24:11.349Z,101138.38
2023-02-17T03:26:37.843Z,101142.41
2023-02-17T03:29:04.331Z,101146.50
2023-02-17T03:31:31.318Z,101137.81
2023-02-17T03:33:58.631Z,101137.69
2023-02-17T03:36:25.096Z,101139.34
2023-02-17T03:38:51.801Z,101119.25
2023-02-17T03:41:18.346Z,101111.94
2023-02-17T03:43:44.775Z,101113.53
2023-02-17T03:46:12.727Z,101111.63
2023-02-17T03:48:40.078Z,101119.31
2023-02-17T03:51:13.220Z,101116.00
2023-02-17T03:53:40.030Z,101112.25
2023-02-17T03:56:06.926Z,101109.47
2023-02-17T03:58:34.252Z,101105.09
2023-02-17T04:01:01.092Z,101106.47
2023-02-17T04:03:27.609Z,101102.69
2023-02-17T04:05:54.569Z,101096.97
2023-02-17T04:08:22.102Z,101110.88
2023-02-17T04:10:56.694Z,101106.22
2023-02-17T04:13:24.002Z,101104.59
2023-02-17T04:15:51.134Z,101102.88
2023-02-17T04:18:18.674Z,101110.22
2023-02-17T04:20:47.350Z,101107.81
2023-02-17T04:23:14.523Z,101107.56
2023-02-17T04:25:41.348Z,101111.63
2023-02-17T04:28:10.005Z,101116.00
2023-02-17T04:30:36.467Z,101101.34
2023-02-17T04:33:03.841Z,101094.06
2023-02-17T04:35:30.525Z,101082.41
2023-02-17T04:37:56.991Z,101082.41
2023-02-17T04:40:23.597Z,101086.72
2023-02-17T04:42:50.164Z,101073.63
2023-02-17T04:45:16.923Z,101077.19
2023-02-17T04:47:43.345Z,101067.19
2023-02-17T04:50:10.660Z,101070.66
2023-02-17T04:52:37.086Z,101062.31
2023-02-17T04:55:04.927Z,101069.94
2023-02-17T04:57:31.406Z,101070.25
2023-02-17T04:59:57.817Z,101066.44
2023-02-17T05:02:26.845Z,101080.00
2023-02-17T05:04:54.011Z,101052.53
2023-02-17T05:07:21.110Z,101062.31
2023-02-17T05:09:47.838Z,101052.34
2023-02-17T05:12:14.656Z,101045.25
2023-02-17T05:14:41.051Z,101056.75
2023-02-17T05:17:07.489Z,101049.38
2023-02-17T05:19:34.045Z,101052.38
2023-02-17T05:22:00.454Z,101054.03
2023-02-17T05:24:27.218Z,101048.34
2023-02-17T05:26:53.872Z,101047.84
2023-02-17T05:29:20.438Z,101053.25
2023-02-17T05:31:47.208Z,101039.75
2023-02-17T05:34:13.734Z,101034.88
2023-02-17T05:36:40.219Z,101037.53
2023-02-17T05:39:06.718Z,101036.00
2023-02-17T05:41:33.176Z,101021.00
2023-02-17T05:43:59.572Z,101028.22
2023-02-17T05:46:26.172Z,101011.66
2023-02-17T05:48:52.701Z,101013.03
2023-02-17T05:51:19.490Z,101005.41
2023-02-17T05:53:46.109Z,101001.94
2023-02-17T05:56:12.480Z,101010.06
2023-02-17T05:58:38.930Z,100996.25
2023-02-17T06:01:09.774Z,100996.75
2023-02-17T06:03:36.217Z,101008.44
2023-02-17T06:06:02.850Z,101009.81
2023-02-17T06:08:29.257Z,100998.94
2023-02-17T06:10:56.005Z,101003.06
2023-02-17T06:13:22.479Z,101008.69
2023-02-17T06:15:49.411Z,101016.41
2023-02-17T06:18:16.131Z,101018.28
2023-02-17T06:20:42.587Z,100999.59
2023-02-17T06:23:08.971Z,101004.97
2023-02-17T06:25:35.823Z,101002.88
2023-02-17T06:28:02.303Z,100994.97
2023-02-17T06:30:28.843Z,100994.44
2023-02-17T06:32:55.329Z,100998.97
2023-02-17T06:35:22.020Z,100994.44
2023-02-17T06:37:48.628Z,100988.19
2023-02-17T06:40:15.670Z,100992.59
2023-02-17T06:42:42.115Z,100992.03
2023-02-17T06:45:09.039Z,100987.41
2023-02-17T06:47:35.683Z,101002.13
2023-02-17T06:50:04.839Z,101003.19
2023-02-17T06:52:32.029Z,101003.19
2023-02-17T06:54:58.668Z,100995.00
2023-02-17T06:57:25.101Z,101001.28
2023-02-17T06:59:51.709Z,100986.88
2023-02-17T07:02:18.300Z,100997.75
2023-02-17T07:04:44.823Z,100993.94
2023-02-17T07:07:11.869Z,100986.59
2023-02-17T07:09:39.147Z,100995.31
2023-02-17T07:12:06.307Z,101002.38
2023-02-17T07:14:34.283Z,100996.13
2023-02-17T07:17:01.899Z,100965.22
2023-02-17T07:19:28.309Z,100963.28
2023-02-17T07:21:54.743Z,100960.84
2023-02-17T07:24:21.261Z,100962.53
2023-02-17T07:26:48.624Z,100960.03
2023-02-17T07:29:15.008Z,100938.63
2023-02-17T07:31:41.559Z,100928.03
2023-02-17T07:34:08.049Z,100945.69
2023-02-17T07:36:34.721Z,100950.63
2023-02-17T07:39:04.396Z,100943.53
2023-02-17T07:41:33.495Z,100932.13
2023-02-17T07:44:07.740Z,100929.66
2023-02-17T07:46:34.240Z,100920.72
2023-02-17T07:49:00.669Z,100940.25
2023-02-17T07:51:27.991Z,100943.25
2023-02-17T07:53:55.061Z,100947.38
2023-02-17T07:56:22.322Z,100952.81
2023-02-17T07:58:49.004Z,100944.66
2023-02-17T08:01:18.356Z,100942.75
2023-02-17T08:03:46.088Z,100944.41
2023-02-17T08:06:18.583Z,100940.06
2023-02-17T08:09:04.188Z,100948.75
2023-02-17T08:11:50.108Z,100941.47
2023-02-17T08:14:16.822Z,100950.66
2023-02-17T08:16:43.485Z,100936.56
2023-02-17T08:19:10.022Z,100930.84
2023-02-17T08:21:36.524Z,100942.53
2023-02-17T08:24:03.172Z,100923.25
2023-02-17T08:26:29.736Z,100931.69
2023-02-17T08:28:56.395Z,100934.94
2023-02-17T08:31:26.307Z,100926.53
2023-02-17T08:33:53.394Z,100922.19
2023-02-17T08:36:22.168Z,100915.91
2023-02-17T08:38:51.268Z,100905.06
2023-02-17T08:41:17.661Z,100915.41
2023-02-17T08:43:44.223Z,100903.47
2023-02-17T08:46:11.951Z,100898.28
2023-02-17T08:48:40.332Z,100904.25
2023-02-17T08:51:07.309Z,100891.22
2023-02-17T08:53:34.592Z,100880.09
2023-02-17T08:56:01.148Z,100888.53
2023-02-17T08:58:27.575Z,100892.34
2023-02-17T09:00:54.145Z,100889.63
2023-02-17T09:03:21.163Z,100895.59
2023-02-17T09:05:49.944Z,100899.66
2023-02-17T09:08:16.912Z,100896.13
2023-02-17T09:10:43.435Z,100889.91
2023-02-17T09:13:09.935Z,100899.94
2023-02-17T09:15:36.409Z,100907.81
2023-02-17T09:18:02.909Z,100917.84
2023-02-17T09:20:29.546Z,100895.06
2023-02-17T09:22:56.271Z,100902.09
2023-02-17T09:25:22.942Z,100904.53
2023-02-17T09:27:49.911Z,100891.50
2023-02-17T09:30:16.765Z,100901.84
2023-02-17T09:32:44.175Z,100903.75
2023-02-17T09:35:15.620Z,100912.72
2023-02-17T09:37:42.299Z,100913.53
2023-02-17T09:40:15.324Z,100898.06
2023-02-17T09:42:41.840Z,100895.06
2023-02-17T09:45:19.034Z,100896.16
2023-02-17T09:47:54.950Z,100901.03
2023-02-17T09:50:44.002Z,100901.03
2023-02-17T09:53:34.437Z,100893.69
2023-02-17T09:56:05.658Z,100885.53
2023-02-17T09:58:50.375Z,100885.53
2023-02-17T10:01:23.945Z,100887.72
2023-02-17T10:03:56.173Z,100877.41
2023-02-17T10:06:28.491Z,100877.13
2023-02-17T10:09:32.036Z,100870.34
2023-02-17T10:12:21.400Z,100876.31
2023-02-17T10:14:56.741Z,100873.59
2023-02-17T10:17:37.709Z,100871.44
2023-02-17T10:20:12.417Z,100877.13
2023-02-17T10:22:42.468Z,100881.75
2023-02-17T10:25:46.489Z,100888.84
2023-02-17T10:28:38.090Z,100885.53
2023-02-17T10:31:15.176Z,100900.25
2023-02-17T10:33:53.028Z,100877.41
2023-02-17T10:36:28.882Z,100864.66
2023-02-17T10:39:11.967Z,100863.03
2023-02-17T10:41:40.172Z,100862.78
2023-02-17T10:44:19.879Z,100862.22
2023-02-17T10:46:48.857Z,100861.16
2023-02-17T10:49:32.297Z,100858.19
2023-02-17T10:52:10.604Z,100854.91
2023-02-17T10:54:49.118Z,100840.53
2023-02-17T10:57:19.537Z,100851.69
2023-02-17T10:59:48.998Z,100832.94
2023-02-17T11:02:37.875Z,100846.53
2023-02-17T11:05:04.831Z,100856.28
2023-02-17T11:07:45.112Z,100842.97
2023-02-17T11:10:22.996Z,100840.78
2023-02-17T11:12:55.830Z,100840.22
2023-02-17T11:15:27.073Z,100816.81
2023-02-17T11:17:54.478Z,100796.16
2023-02-17T11:20:21.433Z,100801.31
2023-02-17T11:23:02.763Z,100799.09
2023-02-17T11:25:34.556Z,100800.72
2023-02-17T11:28:03.584Z,100813.19
2023-02-17T11:30:32.536Z,100814.84
2023-02-17T11:32:59.022Z,100791.41
2023-02-17T11:35:46.088Z,100798.22
2023-02-17T11:38:18.945Z,100790.84
2023-02-17T11:40:59.601Z,100782.13
2023-02-17T11:43:30.570Z,100783.22
2023-02-17T11:46:38.714Z,100783.47
2023-02-17T11:49:33.885Z,100774.50
2023-02-17T11:52:19.077Z,100753.50
2023-02-17T11:55:00.834Z,100760.56
2023-02-17T11:58:01.981Z,100766.56
2023-02-17T12:00:54.374Z,100783.41
2023-02-17T12:03:48.222Z,100787.72
2023-02-17T12:06:24.093Z,100774.66
2023-02-17T12:09:20.475Z,100789.06
2023-02-17T12:12:01.513Z,100796.69
2023-02-17T12:15:03.227Z,100814.34
2023-02-17T12:17:42.242Z,100807.81
2023-02-17T12:20:31.666Z,100794.25
2023-02-17T12:23:09.389Z,100823.38
2023-02-17T12:25:49.770Z,100811.16
2023-02-17T12:28:54.090Z,100819.88
2023-02-17T12:31:41.995Z,100800.56
2023-02-17T12:34:43.832Z,100804.13
2023-02-17T12:37:21.447Z,100806.00
2023-02-17T12:40:03.355Z,100810.72
2023-02-17T12:42:41.191Z,100807.97
2023-02-17T12:45:39.433Z,100816.38
2023-02-17T12:48:14.831Z,100801.72
2023-02-17T12:50:56.558Z,100801.44
2023-02-17T12:53:42.081Z,100787.53
2023-02-17T12:56:33.616Z,100791.63
2023-02-17T12:59:12.664Z,100794.63
2023-02-17T13:01:48.947Z,100800.09
2023-02-17T13:04:18.313Z,100802.53
2023-02-17T13:06:53.140Z,100815.88
2023-02-17T13:09:34.498Z,100827.88
2023-02-17T13:12:27.305Z,100819.69
2023-02-17T13:14:55.224Z,100815.63
2023-02-17T13:17:37.728Z,100820.03
2023-02-17T13:20:07.384Z,100846.44
2023-02-17T13:22:34.605Z,100831.25
2023-02-17T13:25:02.603Z,100834.50
2023-02-17T13:27:29.042Z,100836.69
2023-02-17T13:30:21.729Z,100841.34
2023-02-17T13:33:00.284Z,100852.50
2023-02-17T13:35:27.883Z,100859.28
2023-02-17T13:37:55.012Z,100860.66
2023-02-17T13:40:24.604Z,100881.59
2023-02-17T13:42:54.018Z,100890.56
2023-02-17T13:45:27.431Z,100878.03
2023-02-17T13:47:59.258Z,100862.56
2023-02-17T13:50:35.993Z,100871.53
2023-02-17T13:53:21.016Z,100857.66
2023-02-17T13:55:47.796Z,100865.56
2023-02-17T13:58:14.292Z,100857.41
2023-02-17T14:00:43.378Z,100875.06
2023-02-17T14:03:41.565Z,100857.94
2023-02-17T14:06:13.827Z,100857.06
2023-02-17T14:08:42.921Z,100871.22
2023-02-17T14:11:18.207Z,100871.75
2023-02-17T14:13:47.703Z,100878.00
2023-02-17T14:16:31.376Z,100882.31
2023-02-17T14:19:18.216Z,100868.75
2023-02-17T14:22:02.518Z,100882.63
2023-02-17T14:24:37.329Z,100879.63
2023-02-17T14:27:09.164Z,100888.34
2023-02-17T14:29:44.858Z,100885.88
2023-02-17T14:32:50.076Z,100882.06
2023-02-17T14:35:23.469Z,100885.88
2023-02-17T14:37:52.954Z,100879.06
2023-02-17T14:40:24.777Z,100876.94
2023-02-17T14:42:51.878Z,100882.63
2023-02-17T14:45:19.442Z,100887.81
2023-02-17T14:47:46.434Z,100884.81
2023-02-17T14:50:13.456Z,100878.53
2023-02-17T14:52:49.290Z,100882.63
2023-02-17T14:55:38.901Z,100870.41
2023-02-17T14:58:05.857Z,100881.53
2023-02-17T15:00:32.251Z,100891.34
2023-02-17T15:03:00.450Z,100906.56
2023-02-17T15:05:28.144Z,100910.34
2023-02-17T15:07:54.588Z,100900.91
2023-02-17T15:10:26.737Z,100897.06
2023-02-17T15:12:54.317Z,100919.91
2023-02-17T15:15:21.923Z,100900.59
2023-02-17T15:17:48.572Z,100909.03
2023-02-17T15:20:16.518Z,100920.47
2023-02-17T15:22:44.304Z,100920.47
2023-02-17T15:25:17.346Z,100914.19
2023-02-17T15:27:44.089Z,100920.47
2023-02-17T15:30:13.736Z,100933.22
2023-02-17T15:32:41.017Z,100910.94
2023-02-17T15:35:17.849Z,100927.78
2023-02-17T15:37:44.457Z,100928.34
2023-02-17T15:40:19.190Z,100935.66
2023-02-17T15:42:50.199Z,100930.78
2023-02-17T15:45:19.152Z,100947.91
2023-02-17T15:47:50.527Z,100933.53
2023-02-17T15:50:23.027Z,100935.97
2023-02-17T15:52:50.618Z,100960.72
2023-02-17T15:55:21.401Z,100960.97
2023-02-17T15:57:50.954Z,100964.75
2023-02-17T16:00:21.649Z,100955.00
2023-02-17T16:02:48.120Z,100959.88
2023-02-17T16:05:16.647Z,100943.56
2023-02-17T16:07:43.652Z,100990.88
2023-02-17T16:10:13.667Z,100959.06
2023-02-17T16:12:40.228Z,100984.34
2023-02-17T16:15:13.070Z,100997.66
2023-02-17T16:17:39.665Z,100974.56
2023-02-17T16:20:13.415Z,100983.78
2023-02-17T16:22:39.930Z,100980.53
2023-02-17T16:25:06.608Z,100976.66
2023-02-17T16:27:33.159Z,100986.19
2023-02-17T16:30:00.926Z,100988.63
2023-02-17T16:32:27.519Z,100991.06
2023-02-17T16:34:54.165Z,100970.13
2023-02-17T16:37:20.631Z,100971.72
2023-02-17T16:39:47.068Z,100976.63
2023-02-17T16:42:15.448Z,100978.81
2023-02-17T16:44:42.274Z,100988.63
2023-02-17T16:47:18.501Z,100993.19
2023-02-17T16:49:47.479Z,100991.03
2023-02-17T16:52:24.300Z,100992.13
2023-02-17T16:54:51.291Z,100997.00
2023-02-17T16:57:19.574Z,100995.38
2023-02-17T16:59:47.069Z,100997.03
2023-02-17T17:02:13.883Z,101000.31
2023-02-17T17:04:40.317Z,101001.38
2023-02-17T17:07:07.824Z,101003.84
2023-02-17T17:09:34.778Z,101013.91
2023-02-17T17:12:01.348Z,101000.31
2023-02-17T17:14:27.725Z,101005.81
2023-02-17T17:17:01.499Z,101036.81
2023-02-17T17:19:28.000Z,101032.16
2023-02-17T17:21:54.499Z,101030.81
2023-02-17T17:24:21.781Z,101043.06
2023-02-17T17:26:50.364Z,101049.56
2023-02-17T17:29:18.802Z,101050.41
2023-02-17T17:31:45.568Z,101066.16
2023-02-17T17:34:12.198Z,101060.38
2023-02-17T17:36:43.948Z,101084.03
2023-02-17T17:39:22.741Z,101071.22
2023-02-17T17:41:50.581Z,101093.22
2023-02-17T17:44:17.233Z,101099.19
2023-02-17T17:46:44.132Z,101122.00
2023-02-17T17:49:13.575Z,101135.28
2023-02-17T17:51:40.844Z,101140.44
2023-02-17T17:54:07.875Z,101156.19
2023-02-17T17:56:37.625Z,101152.03
2023-02-17T17:59:05.192Z,101140.31
2023-02-17T18:01:32.022Z,101159.03
2023-02-17T18:04:00.134Z,101163.91
2023-02-17T18:06:43.027Z,101176.06
2023-02-17T18:09:30.643Z,101182.28
2023-02-17T18:12:01.348Z,101184.97
2023-02-17T18:14:28.506Z,101196.59
2023-02-17T18:16:54.885Z,101194.16
2023-02-17T18:19:22.443Z,101198.47
2023-02-17T18:21:49.518Z,101199.22
2023-02-17T18:24:15.929Z,101184.50
2023-02-17T18:26:42.442Z,101217.31
2023-02-17T18:29:08.920Z,101216.97
2023-02-17T18:31:36.217Z,101235.38
2023-02-17T18:34:03.817Z,101240.75
2023-02-17T18:36:30.772Z,101245.06
2023-02-17T18:38:57.189Z,101239.56
2023-02-17T18:41:32.124Z,101241.16
2023-02-17T18:43:59.992Z,101252.78
2023-02-17T18:46:29.051Z,101245.59
2023-02-17T18:48:56.302Z,101244.38
2023-02-17T18:51:24.311Z,101249.53
2023-02-17T18:53:51.420Z,101264.94
2023-02-17T18:56:20.997Z,101263.53
2023-02-17T18:58:49.658Z,101266.94
2023-02-17T19:01:20.635Z,101277.47
2023-02-17T19:03:47.276Z,101286.78
2023-02-17T19:06:17.540Z,101290.47
2023-02-17T19:08:44.758Z,101284.94
2023-02-17T19:11:11.758Z,101286.19
2023-02-17T19:13:38.516Z,101283.97
2023-02-17T19:16:16.698Z,101285.03
2023-02-17T19:18:44.123Z,101281.66
2023-02-17T19:21:10.955Z,101287.16
2023-02-17T19:23:38.105Z,101284.44
2023-02-17T19:26:07.067Z,101282.81
2023-02-17T19:28:34.845Z,101293.91
2023-02-17T19:31:04.079Z,101298.75
2023-02-17T19:33:30.547Z,101297.66
2023-02-17T19:35:57.128Z,101301.50
2023-02-17T19:38:23.707Z,101312.69
2023-02-17T19:40:50.540Z,101311.03
2023-02-17T19:43:17.095Z,101316.53
2023-02-17T19:45:46.405Z,101317.72
2023-02-17T19:48:12.877Z,101310.78
2023-02-17T19:50:39.268Z,101316.75
2023-02-17T19:53:05.685Z,101322.66
2023-02-17T19:55:32.108Z,101313.41
2023-02-17T19:57:58.624Z,101320.09
2023-02-17T20:00:25.091Z,101332.81
2023-02-17T20:02:51.740Z,101327.50
2023-02-17T20:05:18.306Z,101337.16
2023-02-17T20:07:45.689Z,101338.25
2023-02-17T20:10:12.510Z,101343.00
2023-02-17T20:12:38.964Z,101338.19
2023-02-17T20:15:06.440Z,101338.19
2023-02-17T20:17:32.960Z,101342.88
2023-02-17T20:19:59.606Z,101348.94
2023-02-17T20:22:26.242Z,101349.25
2023-02-17T20:24:52.969Z,101352.44
2023-02-17T20:27:19.455Z,101364.31
2023-02-17T20:29:45.887Z,101358.09
2023-02-17T20:32:12.462Z,101361.28
2023-02-17T20:34:39.488Z,101361.41
2023-02-17T20:37:06.740Z,101364.59
2023-02-17T20:39:35.364Z,101369.06
2023-02-17T20:42:02.873Z,101365.81
2023-02-17T20:44:29.318Z,101377.44
2023-02-17T20:46:56.963Z,101367.44
2023-02-17T20:49:23.839Z,101372.16
2023-02-17T20:51:51.159Z,101373.19
2023-02-17T20:54:18.058Z,101376.38
2023-02-17T20:56:46.518Z,101372.63
2023-02-17T20:59:13.727Z,101374.16
2023-02-17T21:01:41.611Z,101375.09
2023-02-17T21:04:08.923Z,101378.28
2023-02-17T21:06:41.238Z,101374.06
2023-02-17T21:09:13.534Z,101383.47
2023-02-17T21:11:40.698Z,101382.63
2023-02-17T21:14:07.518Z,101386.28
2023-02-17T21:16:34.068Z,101389.34
2023-02-17T21:19:00.867Z,101387.72
2023-02-17T21:21:28.151Z,101393.34
2023-02-17T21:23:55.912Z,101400.03
2023-02-17T21:26:23.004Z,101396.28
2023-02-17T21:28:49.812Z,101411.81
2023-02-17T21:31:17.233Z,101406.16
2023-02-17T21:33:44.180Z,101414.03
2023-02-17T21:36:12.917Z,101413.44
2023-02-17T21:38:40.025Z,101416.50
2023-02-17T21:41:11.445Z,101419.44
2023-02-17T21:43:57.982Z,101419.09
2023-02-17T21:46:25.209Z,101422.59
2023-02-17T21:48:53.307Z,101421.56
2023-02-17T21:51:20.551Z,101431.69
2023-02-17T21:53:47.315Z,101444.00
2023-02-17T21:56:14.680Z,101439.78
2023-02-17T21:58:45.888Z,101438.94
2023-02-17T22:01:12.721Z,101448.47
2023-02-17T22:03:39.316Z,101449.63
2023-02-17T22:06:14.143Z,101448.81
2023-02-17T22:08:40.609Z,101447.75
2023-02-17T22:11:13.613Z,101447.88
2023-02-17T22:13:40.018Z,101449.50
2023-02-17T22:16:07.362Z,101442.13
2023-02-17T22:18:33.995Z,101449.97
2023-02-17T22:21:00.374Z,101450.81
2023-02-17T22:23:27.359Z,101465.97
2023-02-17T22:25:53.854Z,101458.81
2023-02-17T22:28:22.004Z,101456.34
2023-02-17T22:30:52.972Z,101466.31
2023-02-17T22:33:19.482Z,101466.31
2023-02-17T22:35:45.903Z,101463.00
2023-02-17T22:38:12.481Z,101459.25
2023-02-17T22:40:40.829Z,101454.41
2023-02-17T22:43:07.303Z,101461.28
2023-02-17T22:45:33.787Z,101457.25
2023-02-17T22:48:00.227Z,101462.78
2023-02-17T22:50:26.641Z,101459.13
2023-02-17T22:52:53.193Z,101469.38
2023-02-17T22:55:19.668Z,101471.34
2023-02-17T22:57:47.278Z,101460.78
2023-02-17T23:00:14.544Z,101462.56
2023-02-17T23:02:40.916Z,101454.22
2023-02-17T23:05:07.504Z,101457.84
2023-02-17T23:07:33.908Z,101451.94
2023-02-17T23:10:03.644Z,101456.53
2023-02-17T23:12:30.316Z,101454.53
2023-02-17T23:14:56.753Z,101463.38
2023-02-17T23:17:24.822Z,101451.75
2023-02-17T23:19:51.302Z,101459.97
2023-02-17T23:22:18.996Z,101454.56
2023-02-17T23:24:47.494Z,101453.97
2023-02-17T23:27:14.577Z,101457.50
2023-02-17T23:29:41.837Z,101453.66
2023-02-17T23:32:08.485Z,101460.56
2023-02-17T23:34:34.929Z,101464.13
2023-02-17T23:37:01.718Z,101470.00
2023-02-17T23:39:28.118Z,101468.69
2023-02-17T23:41:54.567Z,101466.69
2023-02-17T23:44:21.057Z,101454.81
2023-02-17T23:46:47.605Z,101453.53
2023-02-17T23:49:16.149Z,101452.56
2023-02-17T23:51:42.937Z,101456.81
2023-02-17T23:54:09.442Z,101449.75
2023-02-17T23:56:37.011Z,101446.59
2023-02-17T23:59:03.769Z,101444.09
